sensor_id;sensor_type;location;lat;lon;timestamp;pressure;altitude;pressure_sealevel;temperature;humidity
19112;BME280;9688;51.906;8.376;2024-03-23T00:52:39;100056.59;;;9.15;100.00
19112;BME280;9688;51.906;8.376;2024-03-23T00:55:23;100061.91;;;9.14;100.00
19112;BME280;9688;51.906;8.376;2024-03-23T00:58:08;100061.13;;;9.12;100.00
19112;BME280;9688;51.906;8.376;2024-03-23T01:00:53;100057.63;;;9.11;100.00
19112;BME280;9688;51.906;8.376;2024-03-23T01:03:38;100052.41;;;9.10;100.00
19112;BME280;9688;51.906;8.376;2024-03-23T01:06:22;100053.44;;;9.06;100.00
19112;BME280;9688;51.906;8.376;2024-03-23T01:13:20;100051.59;;;8.87;100.00
19112;BME280;9688;51.906;8.376;2024-03-23T01:16:07;100044.00;;;8.80;100.00
19112;BME280;9688;51.906;8.376;2024-03-23T01:18:52;100050.28;;;8.76;100.00
19112;BME280;9688;51.906;8.376;2024-03-23T01:22:03;100034.72;;;8.69;100.00
19112;BME280;9688;51.906;8.376;2024-03-23T01:24:48;100035.78;;;8.65;100.00
19112;BME280;9688;51.906;8.376;2024-03-23T01:27:33;100036.81;;;8.61;100.00
19112;BME280;9688;51.906;8.376;2024-03-23T01:30:20;100020.44;;;8.53;100.00
19112;BME280;9688;51.906;8.376;2024-03-23T01:33:04;100023.22;;;8.50;100.00
19112;BME280;9688;51.906;8.376;2024-03-23T01:35:50;100016.47;;;8.43;100.00
19112;BME280;9688;51.906;8.376;2024-03-23T01:38:34;100019.16;;;8.41;100.00
19112;BME280;9688;51.906;8.376;2024-03-23T01:45:09;100008.63;;;8.41;100.00
19112;BME280;9688;51.906;8.376;2024-03-23T01:47:56;100000.59;;;8.44;100.00
19112;BME280;9688;51.906;8.376;2024-03-23T01:50:41;99997.97;;;8.44;100.00
19112;BME280;9688;51.906;8.376;2024-03-23T01:53:26;99993.56;;;8.45;100.00
19112;BME280;9688;51.906;8.376;2024-03-23T01:56:11;99990.16;;;8.43;100.00
19112;BME280;9688;51.906;8.376;2024-03-23T01:58:58;99986.72;;;8.41;100.00
19112;BME280;9688;51.906;8.376;2024-03-23T02:05:45;99986.00;;;8.36;100.00
19112;BME280;9688;51.906;8.376;2024-03-23T02:17:22;99966.75;;;8.34;100.00
19112;BME280;9688;51.906;8.376;2024-03-23T02:20:11;99973.69;;;8.36;100.00
19112;BME280;9688;51.906;8.376;2024-03-23T02:22:58;99978.00;;;8.39;100.00
19112;BME280;9688;51.906;8.376;2024-03-23T02:33:39;99963.84;;;8.41;100.00
19112;BME280;9688;51.906;8.376;2024-03-23T02:36:25;99965.63;;;8.41;100.00
19112;BME280;9688;51.906;8.376;2024-03-23T02:39:12;99947.19;;;8.41;100.00
19112;BME280;9688;51.906;8.376;2024-03-23T02:41:57;99956.81;;;8.42;100.00
19112;BME280;9688;51.906;8.376;2024-03-23T02:44:44;99953.41;;;8.40;100.00
19112;BME280;9688;51.906;8.376;2024-03-23T02:47:30;99955.16;;;8.39;100.00
19112;BME280;9688;51.906;8.376;2024-03-23T02:50:15;99936.75;;;8.38;100.00
19112;BME280;9688;51.906;8.376;2024-03-23T02:53:01;99937.66;;;8.37;100.00
19112;BME280;9688;51.906;8.376;2024-03-23T02:55:47;99943.94;;;8.34;100.00
19112;BME280;9688;51.906;8.376;2024-03-23T02:58:33;99943.94;;;8.34;100.00
19112;BME280;9688;51.906;8.376;2024-03-23T03:01:18;99945.75;;;8.32;100.00
19112;BME280;9688;51.906;8.376;2024-03-23T03:04:04;99933.75;;;8.25;100.00
19112;BME280;9688;51.906;8.376;2024-03-23T03:06:49;99932.09;;;8.22;100.00
19112;BME280;9688;51.906;8.376;2024-03-23T03:13:31;99928.75;;;8.19;100.00
19112;BME280;9688;51.906;8.376;2024-03-23T03:16:17;99926.22;;;8.16;100.00
19112;BME280;9688;51.906;8.376;2024-03-23T03:19:02;99929.78;;;8.15;100.00
19112;BME280;9688;51.906;8.376;2024-03-23T03:21:47;99937.84;;;8.10;100.00
19112;BME280;9688;51.906;8.376;2024-03-23T03:24:32;99937.97;;;8.07;100.00
19112;BME280;9688;51.906;8.376;2024-03-23T03:27:18;99933.75;;;8.03;100.00
19112;BME280;9688;51.906;8.376;2024-03-23T03:30:06;99932.97;;;8.01;100.00
19112;BME280;9688;51.906;8.376;2024-03-23T03:32:53;99922.44;;;8.01;100.00
19112;BME280;9688;51.906;8.376;2024-03-23T03:35:39;99914.63;;;7.98;100.00
19112;BME280;9688;51.906;8.376;2024-03-23T03:38:24;99922.66;;;7.95;100.00
19112;BME280;9688;51.906;8.376;2024-03-23T03:41:08;99928.16;;;7.89;100.00
19112;BME280;9688;51.906;8.376;2024-03-23T03:43:54;99920.38;;;7.86;100.00
19112;BME280;9688;51.906;8.376;2024-03-23T03:46:40;99926.63;;;7.83;100.00
19112;BME280;9688;51.906;8.376;2024-03-23T03:49:26;99916.22;;;7.80;100.00
19112;BME280;9688;51.906;8.376;2024-03-23T03:52:11;99925.91;;;7.79;100.00
19112;BME280;9688;51.906;8.376;2024-03-23T03:55:01;99923.38;;;7.76;100.00
19112;BME280;9688;51.906;8.376;2024-03-23T03:57:46;99927.09;;;7.71;100.00
19112;BME280;9688;51.906;8.376;2024-03-23T04:00:32;99921.84;;;7.71;100.00
19112;BME280;9688;51.906;8.376;2024-03-23T04:03:19;99920.97;;;7.70;100.00
19112;BME280;9688;51.906;8.376;2024-03-23T04:06:04;99910.50;;;7.69;100.00
19112;BME280;9688;51.906;8.376;2024-03-23T04:08:49;99909.78;;;7.65;100.00
19112;BME280;9688;51.906;8.376;2024-03-23T04:11:35;99915.03;;;7.65;100.00
19112;BME280;9688;51.906;8.376;2024-03-23T04:14:20;99921.19;;;7.64;100.00
19112;BME280;9688;51.906;8.376;2024-03-23T04:17:06;99920.44;;;7.62;100.00
19112;BME280;9688;51.906;8.376;2024-03-23T04:19:52;99923.06;;;7.62;100.00
19112;BME280;9688;51.906;8.376;2024-03-23T04:22:38;99916.00;;;7.63;100.00
19112;BME280;9688;51.906;8.376;2024-03-23T04:25:23;99910.78;;;7.61;100.00
19112;BME280;9688;51.906;8.376;2024-03-23T04:28:09;99905.63;;;7.59;100.00
19112;BME280;9688;51.906;8.376;2024-03-23T04:30:54;99903.88;;;7.58;100.00
19112;BME280;9688;51.906;8.376;2024-03-23T04:33:40;99907.28;;;7.62;100.00
19112;BME280;9688;51.906;8.376;2024-03-23T04:36:25;99904.56;;;7.64;100.00
19112;BME280;9688;51.906;8.376;2024-03-23T04:39:11;99915.16;;;7.62;100.00
19112;BME280;9688;51.906;8.376;2024-03-23T04:41:57;99909.13;;;7.58;100.00
19112;BME280;9688;51.906;8.376;2024-03-23T04:44:43;99921.47;;;7.56;100.00
19112;BME280;9688;51.906;8.376;2024-03-23T04:47:29;99909.22;;;7.57;100.00
19112;BME280;9688;51.906;8.376;2024-03-23T04:50:15;99898.63;;;7.58;100.00
19112;BME280;9688;51.906;8.376;2024-03-23T04:53:02;99867.00;;;7.60;100.00
19112;BME280;9688;51.906;8.376;2024-03-23T04:55:48;99853.06;;;7.58;100.00
19112;BME280;9688;51.906;8.376;2024-03-23T04:58:34;99878.50;;;7.57;100.00
19112;BME280;9688;51.906;8.376;2024-03-23T05:01:18;99881.06;;;7.59;100.00
19112;BME280;9688;51.906;8.376;2024-03-23T05:04:05;99880.16;;;7.60;100.00
19112;BME280;9688;51.906;8.376;2024-03-23T05:06:50;99871.31;;;7.63;100.00
19112;BME280;9688;51.906;8.376;2024-03-23T05:09:37;99872.88;;;7.67;100.00
19112;BME280;9688;51.906;8.376;2024-03-23T05:12:21;99867.63;;;7.67;100.00
19112;BME280;9688;51.906;8.376;2024-03-23T05:15:21;99884.25;;;7.67;100.00
19112;BME280;9688;51.906;8.376;2024-03-23T05:18:06;99889.34;;;7.72;100.00
19112;BME280;9688;51.906;8.376;2024-03-23T05:20:55;99880.47;;;7.74;100.00
19112;BME280;9688;51.906;8.376;2024-03-23T05:23:40;99889.19;;;7.76;100.00
19112;BME280;9688;51.906;8.376;2024-03-23T05:26:29;99883.03;;;7.76;100.00
19112;BME280;9688;51.906;8.376;2024-03-23T05:29:14;99889.19;;;7.76;100.00
19112;BME280;9688;51.906;8.376;2024-03-23T05:32:01;99880.41;;;7.76;100.00
19112;BME280;9688;51.906;8.376;2024-03-23T05:34:46;99880.34;;;7.77;100.00
19112;BME280;9688;51.906;8.376;2024-03-23T05:37:32;99883.84;;;7.78;100.00
19112;BME280;9688;51.906;8.376;2024-03-23T05:40:18;99887.41;;;7.77;100.00
19112;BME280;9688;51.906;8.376;2024-03-23T05:43:05;99883.03;;;7.76;100.00
19112;BME280;9688;51.906;8.376;2024-03-23T05:45:53;99895.28;;;7.77;100.00
19112;BME280;9688;51.906;8.376;2024-03-23T05:48:39;99895.41;;;7.74;100.00
19112;BME280;9688;51.906;8.376;2024-03-23T05:51:23;99887.53;;;7.74;100.00
19112;BME280;9688;51.906;8.376;2024-03-23T05:54:35;99889.41;;;7.70;100.00
19112;BME280;9688;51.906;8.376;2024-03-23T05:57:20;99887.66;;;7.71;100.00
19112;BME280;9688;51.906;8.376;2024-03-23T06:00:08;99883.41;;;7.67;100.00
19112;BME280;9688;51.906;8.376;2024-03-23T06:03:00;99893.13;;;7.65;100.00
19112;BME280;9688;51.906;8.376;2024-03-23T06:05:46;99885.13;;;7.68;100.00
19112;BME280;9688;51.906;8.376;2024-03-23T06:08:30;99890.31;;;7.69;100.00
19112;BME280;9688;51.906;8.376;2024-03-23T06:11:16;99887.56;;;7.72;100.00
19112;BME280;9688;51.906;8.376;2024-03-23T06:14:01;99884.94;;;7.72;100.00
19112;BME280;9688;51.906;8.376;2024-03-23T06:16:48;99890.28;;;7.71;100.00
19112;BME280;9688;51.906;8.376;2024-03-23T06:19:33;99888.53;;;7.70;100.00
19112;BME280;9688;51.906;8.376;2024-03-23T06:22:19;99891.13;;;7.71;100.00
19112;BME280;9688;51.906;8.376;2024-03-23T06:25:04;99903.34;;;7.72;100.00
19112;BME280;9688;51.906;8.376;2024-03-23T06:27:50;99904.31;;;7.70;100.00
19112;BME280;9688;51.906;8.376;2024-03-23T06:30:36;99902.50;;;7.72;100.00
19112;BME280;9688;51.906;8.376;2024-03-23T06:33:22;99897.94;;;7.77;100.00
19112;BME280;9688;51.906;8.376;2024-03-23T06:36:10;99887.22;;;7.81;100.00
19112;BME280;9688;51.906;8.376;2024-03-23T06:38:56;99895.00;;;7.85;100.00
19112;BME280;9688;51.906;8.376;2024-03-23T06:41:41;99893.09;;;7.88;100.00
19112;BME280;9688;51.906;8.376;2024-03-23T06:44:26;99899.91;;;7.94;100.00
19112;BME280;9688;51.906;8.376;2024-03-23T06:47:12;99901.56;;;7.96;100.00
19112;BME280;9688;51.906;8.376;2024-03-23T06:49:59;99900.69;;;7.96;100.00
19112;BME280;9688;51.906;8.376;2024-03-23T06:52:46;99901.38;;;8.01;100.00
19112;BME280;9688;51.906;8.376;2024-03-23T06:55:30;99898.63;;;8.04;100.00
19112;BME280;9688;51.906;8.376;2024-03-23T06:58:18;99900.28;;;8.07;100.00
19112;BME280;9688;51.906;8.376;2024-03-23T07:01:03;99897.66;;;8.07;100.00
19112;BME280;9688;51.906;8.376;2024-03-23T07:03:48;99896.72;;;8.08;100.00
19112;BME280;9688;51.906;8.376;2024-03-23T07:06:42;99913.31;;;8.10;100.00
19112;BME280;9688;51.906;8.376;2024-03-23T07:09:51;99913.13;;;8.14;100.00
19112;BME280;9688;51.906;8.376;2024-03-23T07:12:37;99908.47;;;8.21;100.00
19112;BME280;9688;51.906;8.376;2024-03-23T07:19:13;99901.69;;;8.80;100.00
19112;BME280;9688;51.906;8.376;2024-03-23T07:22:01;99904.75;;;8.89;100.00
19112;BME280;9688;51.906;8.376;2024-03-23T07:24:47;99896.94;;;8.88;100.00
19112;BME280;9688;51.906;8.376;2024-03-23T07:27:34;99896.00;;;8.89;100.00
19112;BME280;9688;51.906;8.376;2024-03-23T07:30:21;99902.34;;;8.85;100.00
19112;BME280;9688;51.906;8.376;2024-03-23T07:33:07;99894.50;;;8.83;100.00
19112;BME280;9688;51.906;8.376;2024-03-23T07:35:52;99894.03;;;8.94;100.00
19112;BME280;9688;51.906;8.376;2024-03-23T07:38:41;99905.94;;;9.03;100.00
19112;BME280;9688;51.906;8.376;2024-03-23T07:41:29;99903.84;;;9.11;100.00
19112;BME280;9688;51.906;8.376;2024-03-23T07:44:15;99903.69;;;9.14;100.00
19112;BME280;9688;51.906;8.376;2024-03-23T07:47:00;99906.09;;;9.39;100.00
19112;BME280;9688;51.906;8.376;2024-03-23T07:49:46;99900.78;;;9.59;100.00
19112;BME280;9688;51.906;8.376;2024-03-23T07:52:32;99901.94;;;9.73;100.00
19112;BME280;9688;51.906;8.376;2024-03-23T07:55:18;99895.22;;;9.85;100.00
19112;BME280;9688;51.906;8.376;2024-03-23T07:58:05;99903.78;;;9.90;100.00
19112;BME280;9688;51.906;8.376;2024-03-23T08:00:50;99906.19;;;9.94;100.00
19112;BME280;9688;51.906;8.376;2024-03-23T08:03:36;99899.59;;;10.03;100.00
19112;BME280;9688;51.906;8.376;2024-03-23T08:06:22;99904.19;;;9.99;100.00
19112;BME280;9688;51.906;8.376;2024-03-23T08:09:08;99899.00;;;9.98;100.00
19112;BME280;9688;51.906;8.376;2024-03-23T08:11:54;99898.91;;;9.99;100.00
19112;BME280;9688;51.906;8.376;2024-03-23T08:14:40;99902.13;;;10.06;100.00
19112;BME280;9688;51.906;8.376;2024-03-23T08:17:26;99899.72;;;10.19;100.00
19112;BME280;9688;51.906;8.376;2024-03-23T08:20:12;99902.88;;;10.27;100.00
19112;BME280;9688;51.906;8.376;2024-03-23T08:22:57;99920.22;;;10.33;100.00
19112;BME280;9688;51.906;8.376;2024-03-23T08:25:42;99908.97;;;10.29;100.00
19112;BME280;9688;51.906;8.376;2024-03-23T08:32:30;99906.59;;;10.23;100.00
19112;BME280;9688;51.906;8.376;2024-03-23T08:35:15;99909.66;;;10.33;100.00
19112;BME280;9688;51.906;8.376;2024-03-23T08:38:01;99905.00;;;10.38;100.00
19112;BME280;9688;51.906;8.376;2024-03-23T08:40:46;99902.00;;;10.45;100.00
19112;BME280;9688;51.906;8.376;2024-03-23T08:43:34;99899.84;;;10.54;100.00
19112;BME280;9688;51.906;8.376;2024-03-23T08:46:20;99901.16;;;10.62;100.00
19112;BME280;9688;51.906;8.376;2024-03-23T08:49:06;99902.94;;;10.79;100.00
19112;BME280;9688;51.906;8.376;2024-03-23T08:51:52;99907.38;;;10.96;100.00
19112;BME280;9688;51.906;8.376;2024-03-23T08:54:39;99904.94;;;10.91;100.00
19112;BME280;9688;51.906;8.376;2024-03-23T08:57:24;99914.03;;;10.86;100.00
19112;BME280;9688;51.906;8.376;2024-03-23T09:00:11;99902.47;;;10.88;100.00
19112;BME280;9688;51.906;8.376;2024-03-23T09:02:56;99909.16;;;10.96;100.00
19112;BME280;9688;51.906;8.376;2024-03-23T09:05:43;99893.75;;;11.04;100.00
19112;BME280;9688;51.906;8.376;2024-03-23T09:08:28;99892.75;;;11.22;100.00
19112;BME280;9688;51.906;8.376;2024-03-23T09:11:14;99894.69;;;11.36;100.00
19112;BME280;9688;51.906;8.376;2024-03-23T09:13:59;99900.75;;;11.38;100.00
19112;BME280;9688;51.906;8.376;2024-03-23T09:16:45;99900.13;;;11.33;100.00
19112;BME280;9688;51.906;8.376;2024-03-23T09:19:29;99891.41;;;11.15;100.00
19112;BME280;9688;51.906;8.376;2024-03-23T09:22:17;99909.84;;;10.99;100.00
19112;BME280;9688;51.906;8.376;2024-03-23T09:25:03;99898.13;;;10.87;100.00
19112;BME280;9688;51.906;8.376;2024-03-23T09:27:50;99900.59;;;10.90;100.00
19112;BME280;9688;51.906;8.376;2024-03-23T09:30:36;99905.56;;;10.97;100.00
19112;BME280;9688;51.906;8.376;2024-03-23T09:33:26;99901.59;;;11.05;100.00
19112;BME280;9688;51.906;8.376;2024-03-23T09:36:14;99905.19;;;11.04;99.10
19112;BME280;9688;51.906;8.376;2024-03-23T09:43:22;99896.34;;;11.21;98.82
19112;BME280;9688;51.906;8.376;2024-03-23T09:46:08;99893.81;;;11.35;98.00
19112;BME280;9688;51.906;8.376;2024-03-23T09:48:57;99886.59;;;11.39;96.65
19112;BME280;9688;51.906;8.376;2024-03-23T09:51:42;99883.09;;;11.54;95.62
19112;BME280;9688;51.906;8.376;2024-03-23T09:54:28;99894.06;;;11.80;94.87
19112;BME280;9688;51.906;8.376;2024-03-23T09:57:14;99881.03;;;12.09;94.53
19112;BME280;9688;51.906;8.376;2024-03-23T10:00:02;99877.25;;;12.13;92.73
19112;BME280;9688;51.906;8.376;2024-03-23T10:02:47;99884.59;;;12.08;92.84
19112;BME280;9688;51.906;8.376;2024-03-23T10:05:33;99890.00;;;12.06;91.67
19112;BME280;9688;51.906;8.376;2024-03-23T10:08:28;99879.47;;;12.04;91.25
19112;BME280;9688;51.906;8.376;2024-03-23T10:15:34;99876.06;;;12.02;90.81
19112;BME280;9688;51.906;8.376;2024-03-23T10:18:21;99895.25;;;11.74;90.81
19112;BME280;9688;51.906;8.376;2024-03-23T10:21:08;99876.88;;;11.39;90.74
19112;BME280;9688;51.906;8.376;2024-03-23T10:23:55;99871.66;;;11.05;91.07
19112;BME280;9688;51.906;8.376;2024-03-23T10:26:40;99877.56;;;10.75;91.73
19112;BME280;9688;51.906;8.376;2024-03-23T10:29:26;99899.41;;;10.44;92.71
19112;BME280;9688;51.906;8.376;2024-03-23T10:32:15;99892.59;;;10.21;93.42
19112;BME280;9688;51.906;8.376;2024-03-23T10:35:14;99892.41;;;10.07;93.80
19112;BME280;9688;51.906;8.376;2024-03-23T10:38:00;99896.97;;;10.03;93.65
19112;BME280;9688;51.906;8.376;2024-03-23T10:40:45;99883.91;;;10.00;94.58
19112;BME280;9688;51.906;8.376;2024-03-23T10:43:33;99879.63;;;9.97;93.68
19112;BME280;9688;51.906;8.376;2024-03-23T10:50:20;99873.31;;;10.19;93.97
19112;BME280;9688;51.906;8.376;2024-03-23T10:53:06;99877.03;;;10.34;92.51
19112;BME280;9688;51.906;8.376;2024-03-23T10:55:52;99878.28;;;10.44;93.29
19112;BME280;9688;51.906;8.376;2024-03-23T10:58:42;99866.09;;;10.59;92.48
19112;BME280;9688;51.906;8.376;2024-03-23T11:01:28;99870.75;;;10.71;92.63
19112;BME280;9688;51.906;8.376;2024-03-23T11:08:41;99877.81;;;10.88;91.37
19112;BME280;9688;51.906;8.376;2024-03-23T11:11:27;99875.09;;;10.89;90.47
19112;BME280;9688;51.906;8.376;2024-03-23T11:14:22;99877.19;;;11.00;89.45
19112;BME280;9688;51.906;8.376;2024-03-23T11:17:09;99887.56;;;11.21;89.81
19112;BME280;9688;51.906;8.376;2024-03-23T11:19:55;99874.13;;;11.41;88.15
19112;BME280;9688;51.906;8.376;2024-03-23T11:22:42;99876.63;;;11.60;87.72
19112;BME280;9688;51.906;8.376;2024-03-23T11:25:29;99873.91;;;11.77;87.01
19112;BME280;9688;51.906;8.376;2024-03-23T11:28:15;99870.69;;;11.88;86.26
19112;BME280;9688;51.906;8.376;2024-03-23T11:31:01;99864.44;;;12.05;86.15
19112;BME280;9688;51.906;8.376;2024-03-23T11:33:46;99857.44;;;12.20;86.34
19112;BME280;9688;51.906;8.376;2024-03-23T11:36:32;99857.31;;;12.21;85.90
19112;BME280;9688;51.906;8.376;2024-03-23T11:39:38;99861.38;;;11.97;85.64
19112;BME280;9688;51.906;8.376;2024-03-23T11:43:23;99871.03;;;11.98;85.37
19112;BME280;9688;51.906;8.376;2024-03-23T11:46:10;99871.00;;;12.14;84.55
19112;BME280;9688;51.906;8.376;2024-03-23T11:48:55;99854.72;;;12.36;83.69
19112;BME280;9688;51.906;8.376;2024-03-23T11:51:53;99846.31;;;12.43;82.78
19112;BME280;9688;51.906;8.376;2024-03-23T11:55:12;99839.91;;;12.47;82.14
19112;BME280;9688;51.906;8.376;2024-03-23T11:57:58;99857.34;;;12.52;81.39
19112;BME280;9688;51.906;8.376;2024-03-23T12:00:51;99839.09;;;12.61;80.63
19112;BME280;9688;51.906;8.376;2024-03-23T12:03:37;99829.69;;;12.86;79.90
19112;BME280;9688;51.906;8.376;2024-03-23T12:06:22;99838.56;;;12.99;79.43
19112;BME280;9688;51.906;8.376;2024-03-23T12:09:08;99825.03;;;13.04;78.65
19112;BME280;9688;51.906;8.376;2024-03-23T12:15:30;99866.41;;;12.78;78.81
19112;BME280;9688;51.906;8.376;2024-03-23T12:18:27;99898.56;;;12.11;80.68
19112;BME280;9688;51.906;8.376;2024-03-23T12:21:17;99907.59;;;11.09;83.41
19112;BME280;9688;51.906;8.376;2024-03-23T12:24:03;99908.16;;;10.27;86.75
19112;BME280;9688;51.906;8.376;2024-03-23T12:26:49;99891.88;;;9.62;88.34
19112;BME280;9688;51.906;8.376;2024-03-23T12:29:35;99882.78;;;9.30;89.15
19112;BME280;9688;51.906;8.376;2024-03-23T12:32:21;99881.41;;;9.21;90.01
19112;BME280;9688;51.906;8.376;2024-03-23T12:35:08;99875.22;;;9.22;91.39
19112;BME280;9688;51.906;8.376;2024-03-23T12:38:14;99877.19;;;9.17;91.16
19112;BME280;9688;51.906;8.376;2024-03-23T12:41:31;99876.56;;;9.31;92.06
19112;BME280;9688;51.906;8.376;2024-03-23T12:44:16;99862.13;;;9.58;91.33
19112;BME280;9688;51.906;8.376;2024-03-23T12:47:02;99856.69;;;9.80;89.71
19112;BME280;9688;51.906;8.376;2024-03-23T12:49:48;99858.50;;;9.97;90.08
19112;BME280;9688;51.906;8.376;2024-03-23T12:52:35;99856.78;;;10.15;89.17
19112;BME280;9688;51.906;8.376;2024-03-23T12:55:19;99857.50;;;10.36;88.21
19112;BME280;9688;51.906;8.376;2024-03-23T12:58:06;99853.00;;;10.56;88.16
19112;BME280;9688;51.906;8.376;2024-03-23T13:00:51;99853.34;;;10.67;86.73
19112;BME280;9688;51.906;8.376;2024-03-23T13:03:36;99852.03;;;10.76;86.82
19112;BME280;9688;51.906;8.376;2024-03-23T13:06:21;99851.13;;;10.92;86.65
19112;BME280;9688;51.906;8.376;2024-03-23T13:09:07;99859.09;;;11.08;85.34
19112;BME280;9688;51.906;8.376;2024-03-23T13:11:53;99871.28;;;11.28;83.90
19112;BME280;9688;51.906;8.376;2024-03-23T13:14:40;99867.91;;;11.42;83.92
19112;BME280;9688;51.906;8.376;2024-03-23T13:17:26;99878.66;;;11.55;83.22
19112;BME280;9688;51.906;8.376;2024-03-23T13:20:12;99872.63;;;11.53;83.50
19112;BME280;9688;51.906;8.376;2024-03-23T13:22:59;99877.03;;;11.52;83.01
19112;BME280;9688;51.906;8.376;2024-03-23T13:25:51;99869.69;;;11.42;83.25
19112;BME280;9688;51.906;8.376;2024-03-23T13:28:37;99892.28;;;11.31;84.02
19112;BME280;9688;51.906;8.376;2024-03-23T13:31:22;99914.28;;;10.99;84.53
19112;BME280;9688;51.906;8.376;2024-03-23T13:34:07;99916.09;;;10.27;87.74
19112;BME280;9688;51.906;8.376;2024-03-23T13:36:52;99901.34;;;9.66;90.92
19112;BME280;9688;51.906;8.376;2024-03-23T13:39:37;99876.38;;;9.35;93.00
19112;BME280;9688;51.906;8.376;2024-03-23T13:42:22;99881.22;;;9.26;94.73
19112;BME280;9688;51.906;8.376;2024-03-23T13:45:10;99878.94;;;9.37;94.70
19112;BME280;9688;51.906;8.376;2024-03-23T13:47:56;99874.03;;;9.48;94.49
19112;BME280;9688;51.906;8.376;2024-03-23T13:50:40;99872.25;;;9.49;95.05
19112;BME280;9688;51.906;8.376;2024-03-23T13:53:26;99869.41;;;9.53;95.54
19112;BME280;9688;51.906;8.376;2024-03-23T13:56:12;99861.25;;;9.58;95.70
19112;BME280;9688;51.906;8.376;2024-03-23T13:58:59;99858.78;;;9.55;95.72
19112;BME280;9688;51.906;8.376;2024-03-23T14:01:44;99860.84;;;9.48;95.85
19112;BME280;9688;51.906;8.376;2024-03-23T14:04:31;99859.41;;;9.41;96.47
19112;BME280;9688;51.906;8.376;2024-03-23T14:07:15;99845.78;;;9.50;97.04
19112;BME280;9688;51.906;8.376;2024-03-23T14:10:02;99851.34;;;9.63;97.33
19112;BME280;9688;51.906;8.376;2024-03-23T14:12:47;99861.84;;;9.65;96.73
19112;BME280;9688;51.906;8.376;2024-03-23T14:15:37;99857.63;;;9.60;96.54
19112;BME280;9688;51.906;8.376;2024-03-23T14:18:24;99866.69;;;9.55;96.07
19112;BME280;9688;51.906;8.376;2024-03-23T14:21:10;99875.69;;;9.51;95.70
19112;BME280;9688;51.906;8.376;2024-03-23T14:23:54;99883.16;;;9.41;95.61
19112;BME280;9688;51.906;8.376;2024-03-23T14:26:40;99924.41;;;9.23;95.56
19112;BME280;9688;51.906;8.376;2024-03-23T14:29:25;99908.41;;;9.07;96.55
19112;BME280;9688;51.906;8.376;2024-03-23T14:32:12;99907.22;;;8.94;97.64
19112;BME280;9688;51.906;8.376;2024-03-23T14:34:57;99880.78;;;8.75;98.32
19112;BME280;9688;51.906;8.376;2024-03-23T14:37:42;99886.06;;;8.55;99.55
19112;BME280;9688;51.906;8.376;2024-03-23T14:40:26;99899.94;;;8.36;100.00
19112;BME280;9688;51.906;8.376;2024-03-23T14:43:12;99917.16;;;8.23;100.00
19112;BME280;9688;51.906;8.376;2024-03-23T14:46:08;99922.88;;;8.12;100.00
19112;BME280;9688;51.906;8.376;2024-03-23T14:48:55;99910.97;;;8.02;100.00
19112;BME280;9688;51.906;8.376;2024-03-23T14:51:40;99941.44;;;7.86;100.00
19112;BME280;9688;51.906;8.376;2024-03-23T14:54:24;99921.72;;;7.74;100.00
19112;BME280;9688;51.906;8.376;2024-03-23T14:57:09;99907.47;;;7.56;100.00
19112;BME280;9688;51.906;8.376;2024-03-23T14:59:54;99899.47;;;7.59;100.00
19112;BME280;9688;51.906;8.376;2024-03-23T15:02:39;99891.81;;;7.76;100.00
19112;BME280;9688;51.906;8.376;2024-03-23T15:05:25;99879.28;;;8.05;100.00
19112;BME280;9688;51.906;8.376;2024-03-23T15:08:10;99878.16;;;8.33;100.00
19112;BME280;9688;51.906;8.376;2024-03-23T15:10:58;99871.38;;;8.49;100.00
19112;BME280;9688;51.906;8.376;2024-03-23T15:13:44;99869.00;;;8.63;100.00
19112;BME280;9688;51.906;8.376;2024-03-23T15:16:29;99852.53;;;8.79;100.00
19112;BME280;9688;51.906;8.376;2024-03-23T15:19:15;99848.50;;;8.90;100.00
19112;BME280;9688;51.906;8.376;2024-03-23T15:22:03;99856.84;;;9.00;100.00
19112;BME280;9688;51.906;8.376;2024-03-23T15:24:49;99858.97;;;9.12;100.00
19112;BME280;9688;51.906;8.376;2024-03-23T15:27:34;99847.66;;;9.29;100.00
19112;BME280;9688;51.906;8.376;2024-03-23T15:30:18;99845.22;;;9.44;100.00
19112;BME280;9688;51.906;8.376;2024-03-23T15:33:03;99836.88;;;9.53;100.00
19112;BME280;9688;51.906;8.376;2024-03-23T15:35:48;99832.47;;;9.53;100.00
19112;BME280;9688;51.906;8.376;2024-03-23T15:38:34;99828.53;;;9.62;100.00
19112;BME280;9688;51.906;8.376;2024-03-23T15:41:19;99806.97;;;9.71;98.36
19112;BME280;9688;51.906;8.376;2024-03-23T15:44:07;99816.44;;;9.75;98.42
19112;BME280;9688;51.906;8.376;2024-03-23T15:46:51;99815.19;;;9.84;97.99
19112;BME280;9688;51.906;8.376;2024-03-23T15:49:36;99815.72;;;9.91;96.31
19112;BME280;9688;51.906;8.376;2024-03-23T15:52:21;99813.78;;;9.94;96.76
19112;BME280;9688;51.906;8.376;2024-03-23T15:55:08;99804.69;;;10.00;96.37
19112;BME280;9688;51.906;8.376;2024-03-23T15:57:54;99796.56;;;10.04;95.42
19112;BME280;9688;51.906;8.376;2024-03-23T16:00:39;99801.22;;;9.99;95.38
19112;BME280;9688;51.906;8.376;2024-03-23T16:03:24;99806.81;;;9.93;93.87
19112;BME280;9688;51.906;8.376;2024-03-23T16:06:10;99811.59;;;9.85;94.06
19112;BME280;9688;51.906;8.376;2024-03-23T16:08:55;99791.63;;;9.79;93.96
19112;BME280;9688;51.906;8.376;2024-03-23T16:11:41;99793.56;;;9.76;92.82
19112;BME280;9688;51.906;8.376;2024-03-23T16:14:26;99790.34;;;9.69;93.53
19112;BME280;9688;51.906;8.376;2024-03-23T16:17:11;99793.16;;;9.66;93.26
19112;BME280;9688;51.906;8.376;2024-03-23T16:19:56;99793.00;;;9.69;93.21
19112;BME280;9688;51.906;8.376;2024-03-23T16:22:40;99784.03;;;9.73;92.58
19112;BME280;9688;51.906;8.376;2024-03-23T16:25:26;99789.28;;;9.73;92.77
19112;BME280;9688;51.906;8.376;2024-03-23T16:28:12;99794.44;;;9.76;92.02
19112;BME280;9688;51.906;8.376;2024-03-23T16:30:58;99796.97;;;9.78;90.74
19112;BME280;9688;51.906;8.376;2024-03-23T16:33:43;99797.75;;;9.80;89.53
19112;BME280;9688;51.906;8.376;2024-03-23T16:36:28;99802.25;;;9.78;89.81
19112;BME280;9688;51.906;8.376;2024-03-23T16:39:12;99814.06;;;9.71;89.25
19112;BME280;9688;51.906;8.376;2024-03-23T16:41:59;99812.63;;;9.64;87.97
19112;BME280;9688;51.906;8.376;2024-03-23T16:44:44;99807.78;;;9.54;87.61
19112;BME280;9688;51.906;8.376;2024-03-23T16:47:30;99813.41;;;9.47;86.86
19112;BME280;9688;51.906;8.376;2024-03-23T16:50:14;99814.56;;;9.41;86.49